Time;durP1;ratioP1;P1;durP2;ratioP2;P2;SDS_P1;SDS_P2;PMS_P1;PMS_P2;Temp;Humidity;BMP_temperature;BMP_pressure;BME280_temperature;BME280_humidity;BME280_pressure;Samples;Min_cycle;Max_cycle;Signal;HPM_P1;HPM_P2
2023/02/14 00:02:04;;;;;;;25.50;14.93;;;0.20;99.90;;;;;;5072582;28;20202;-88
2023/02/14 00:04:31;;;;;;;23.73;14.27;;;0.10;99.90;;;;;;5072006;28;20668;-88
2023/02/14 00:06:58;;;;;;;24.70;15.13;;;0.10;99.90;;;;;;5072943;28;20202;-88
2023/02/14 00:09:24;;;;;;;25.53;14.70;;;0.10;99.90;;;;;;5072083;28;20213;-88
2023/02/14 00:11:51;;;;;;;26.40;14.83;;;0.10;99.90;;;;;;5072240;28;20422;-88
2023/02/14 00:17:04;;;;;;;26.37;14.97;;;0.10;99.90;;;;;;5072141;28;20225;-88
2023/02/14 00:19:33;;;;;;;24.13;13.93;;;0.10;99.90;;;;;;5071841;28;20217;-88
2023/02/14 00:22:00;;;;;;;26.30;14.90;;;0.10;99.90;;;;;;5071993;28;20232;-88
2023/02/14 00:24:27;;;;;;;23.70;13.97;;;0.10;99.90;;;;;;5071508;28;20218;-88
2023/02/14 00:26:55;;;;;;;27.57;14.60;;;0.00;99.90;;;;;;5072042;28;20202;-88
2023/02/14 00:29:25;;;;;;;26.57;13.27;;;-0.10;99.90;;;;;;5071547;28;20630;-88
2023/02/14 00:31:52;;;;;;;27.00;14.77;;;-0.20;99.90;;;;;;5071774;28;20199;-88
2023/02/14 00:34:19;;;;;;;28.50;15.93;;;-0.20;99.90;;;;;;5059503;28;20187;-88
2023/02/14 00:36:47;;;;;;;26.60;14.87;;;-0.20;99.90;;;;;;5071855;28;20218;-88
2023/02/14 00:39:15;;;;;;;26.07;14.20;;;-0.10;99.90;;;;;;5071268;28;20202;-88
2023/02/14 00:41:43;;;;;;;25.97;15.30;;;-0.20;99.90;;;;;;5072290;28;20199;-87
2023/02/14 00:44:11;;;;;;;26.57;14.93;;;-0.20;99.90;;;;;;5071751;28;20186;-88
2023/02/14 00:46:40;;;;;;;26.13;15.27;;;-0.20;99.90;;;;;;5071968;28;20201;-88
2023/02/14 00:49:06;;;;;;;27.20;15.57;;;-0.20;99.90;;;;;;5072094;28;20194;-87
2023/02/14 00:51:33;;;;;;;25.50;15.57;;;0.00;99.90;;;;;;5071610;28;20230;-88
2023/02/14 00:54:00;;;;;;;27.87;15.33;;;0.00;99.90;;;;;;5071930;28;20202;-88
2023/02/14 00:56:27;;;;;;;27.53;15.70;;;0.00;99.90;;;;;;5068020;28;20227;-88
2023/02/14 00:58:54;;;;;;;28.30;16.03;;;-0.10;99.90;;;;;;5071350;28;20655;-88
2023/02/14 01:01:21;;;;;;;28.53;16.20;;;0.10;99.90;;;;;;5069987;28;20221;-88
2023/02/14 01:03:49;;;;;;;27.77;15.77;;;0.00;99.90;;;;;;5070065;28;20566;-88
2023/02/14 01:06:16;;;;;;;24.60;14.73;;;0.00;99.90;;;;;;5074829;28;20198;-88
2023/02/14 01:08:43;;;;;;;27.97;15.90;;;0.00;99.90;;;;;;5071056;28;20202;-88
2023/02/14 01:11:11;;;;;;;26.87;15.07;;;-0.10;99.90;;;;;;5070159;28;20592;-88
2023/02/14 01:13:38;;;;;;;28.20;14.67;;;-0.30;99.90;;;;;;5071688;28;20210;-88
2023/02/14 01:16:07;;;;;;;29.10;15.00;;;-0.40;99.90;;;;;;5070708;28;20694;-88
2023/02/14 01:18:35;;;;;;;26.97;15.30;;;-0.40;99.90;;;;;;5071331;28;20248;-88
2023/02/14 01:21:17;;;;;;;25.20;13.50;;;-0.40;99.90;;;;;;5070902;28;20703;-88
2023/02/14 01:23:45;;;;;;;32.80;14.83;;;-0.40;99.90;;;;;;5061549;28;20206;-88
2023/02/14 01:26:13;;;;;;;27.33;14.87;;;-0.50;99.90;;;;;;5070334;28;20206;-87
2023/02/14 01:28:40;;;;;;;29.80;15.40;;;-0.40;99.90;;;;;;5071291;28;20203;-88
2023/02/14 01:31:09;;;;;;;30.63;15.80;;;-0.40;99.90;;;;;;5070882;28;20581;-87
2023/02/14 01:33:37;;;;;;;62.00;19.20;;;-0.50;99.90;;;;;;5070455;28;20194;-87
2023/02/14 01:36:04;;;;;;;41.53;19.17;;;-0.50;99.90;;;;;;5065160;28;20215;-87
2023/02/14 01:38:32;;;;;;;33.47;17.63;;;-0.50;99.90;;;;;;5061293;28;20206;-87
2023/02/14 01:40:59;;;;;;;41.20;18.80;;;-0.50;99.90;;;;;;5075114;28;20213;-87
2023/02/14 01:43:26;;;;;;;41.90;18.57;;;-0.50;99.90;;;;;;5081144;28;20198;-87
2023/02/14 01:45:53;;;;;;;50.47;19.13;;;-0.60;99.90;;;;;;5069911;28;20210;-87
2023/02/14 01:48:22;;;;;;;44.20;17.70;;;-0.60;99.90;;;;;;5070979;28;20210;-87
2023/02/14 01:50:52;;;;;;;51.47;18.13;;;-0.80;99.90;;;;;;5071132;28;20222;-88
2023/02/14 01:53:23;;;;;;;65.83;18.07;;;-0.80;99.90;;;;;;5074831;28;20217;-88
2023/02/14 01:55:59;;;;;;;39.87;16.60;;;-0.80;99.90;;;;;;5073667;28;20225;-87
2023/02/14 01:58:30;;;;;;;26.90;14.67;;;-0.70;99.90;;;;;;5071856;28;20194;-87
2023/02/14 02:00:56;;;;;;;25.90;15.40;;;-0.70;99.90;;;;;;5074474;28;20297;-87
2023/02/14 02:03:24;;;;;;;28.10;15.07;;;-0.60;99.90;;;;;;5074943;28;20312;-87
2023/02/14 02:05:55;;;;;;;28.03;15.60;;;-0.60;99.90;;;;;;5073680;28;20207;-87
2023/02/14 02:08:22;;;;;;;25.87;14.33;;;-0.60;99.90;;;;;;5074538;28;20202;-87
2023/02/14 02:10:49;;;;;;;24.47;12.20;;;-0.70;99.90;;;;;;5073556;28;20224;-87
2023/02/14 02:13:20;;;;;;;24.73;13.23;;;-0.60;99.90;;;;;;5073863;28;20209;-88
2023/02/14 02:16:02;;;;;;;25.63;14.60;;;-0.50;99.90;;;;;;5073407;28;20581;-88
2023/02/14 02:18:40;;;;;;;24.40;13.87;;;-0.50;99.90;;;;;;5073689;28;20640;-88
2023/02/14 02:21:38;;;;;;;22.43;12.53;;;-0.50;99.90;;;;;;5072791;28;20222;-88
2023/02/14 02:24:28;;;;;;;24.53;13.63;;;-0.40;99.90;;;;;;5073434;28;20208;-87
2023/02/14 02:27:18;;;;;;;26.87;14.80;;;-0.50;99.90;;;;;;5073687;28;20205;-88
2023/02/14 02:30:30;;;;;;;24.83;14.00;;;-0.50;99.90;;;;;;5074189;28;20219;-87
2023/02/14 02:33:34;;;;;;;28.87;15.77;;;-0.10;99.90;;;;;;5073850;28;20198;-87
2023/02/14 02:36:20;;;;;;;24.13;13.93;;;-0.20;99.90;;;;;;5062263;28;20691;-87
2023/02/14 02:39:00;;;;;;;26.43;14.40;;;-0.10;99.90;;;;;;5073726;28;20191;-87
2023/02/14 02:41:36;;;;;;;28.57;15.87;;;-0.10;99.90;;;;;;5073263;28;20250;-88
2023/02/14 02:44:12;;;;;;;30.27;14.37;;;-0.10;99.90;;;;;;5072347;28;20194;-87
2023/02/14 02:46:49;;;;;;;27.10;14.03;;;0.00;99.90;;;;;;5072528;28;20681;-87
2023/02/14 02:55:11;;;;;;;27.13;13.73;;;0.00;99.90;;;;;;5067774;28;20208;-87
2023/02/14 02:57:41;;;;;;;26.63;11.80;;;-0.10;99.90;;;;;;5062554;28;20597;-87
2023/02/14 03:00:11;;;;;;;36.70;12.17;;;-0.10;99.90;;;;;;5065116;28;20210;-87
2023/02/14 03:05:23;;;;;;;26.97;13.77;;;-0.10;99.90;;;;;;5072936;28;20212;-87
2023/02/14 03:07:51;;;;;;;26.20;11.83;;;-0.10;99.90;;;;;;5073076;28;20194;-87
2023/02/14 03:10:21;;;;;;;21.57;11.40;;;-0.10;99.90;;;;;;5073828;28;20222;-87
2023/02/14 03:13:13;;;;;;;25.77;10.80;;;-0.10;99.90;;;;;;5071859;28;20209;-87
2023/02/14 03:15:53;;;;;;;20.40;11.33;;;-0.20;99.90;;;;;;5072916;28;20198;-87
2023/02/14 03:18:37;;;;;;;20.23;11.90;;;-0.10;99.90;;;;;;5073534;28;20187;-87
2023/02/14 03:21:13;;;;;;;23.00;11.47;;;-0.10;99.90;;;;;;5071764;28;20218;-87
2023/02/14 03:23:50;;;;;;;22.50;11.37;;;-0.20;99.90;;;;;;5062525;28;20568;-88
2023/02/14 03:26:20;;;;;;;20.43;11.40;;;-0.30;99.90;;;;;;5072128;28;20666;-87
2023/02/14 03:28:53;;;;;;;22.60;12.00;;;-0.20;99.90;;;;;;5067778;28;20214;-87
2023/02/14 03:31:28;;;;;;;29.07;15.17;;;0.00;99.90;;;;;;5072441;28;20218;-88
2023/02/14 03:34:02;;;;;;;24.77;12.57;;;-0.10;99.90;;;;;;5067642;28;20198;-87
2023/02/14 03:36:35;;;;;;;25.17;13.63;;;-0.20;99.90;;;;;;5071767;28;20230;-87
2023/02/14 03:39:07;;;;;;;21.00;10.13;;;-0.10;99.90;;;;;;5072322;28;20678;-87
2023/02/14 03:41:40;;;;;;;28.83;12.03;;;0.00;99.90;;;;;;5071360;28;20727;-86
2023/02/14 03:44:10;;;;;;;22.50;11.60;;;0.00;99.90;;;;;;5073237;28;20206;-85
2023/02/14 03:46:44;;;;;;;25.43;10.93;;;0.10;99.90;;;;;;5073228;28;20206;-85
2023/02/14 03:49:17;;;;;;;26.63;10.80;;;0.10;99.90;;;;;;5073764;28;20209;-87
2023/02/14 03:51:48;;;;;;;28.20;10.93;;;0.10;99.90;;;;;;5073213;28;20606;-85
2023/02/14 03:54:17;;;;;;;28.37;10.70;;;0.10;99.90;;;;;;5073403;28;20269;-85
2023/02/14 03:56:47;;;;;;;22.80;10.60;;;0.10;99.90;;;;;;5071395;28;20225;-84
2023/02/14 03:59:16;;;;;;;29.97;11.70;;;0.00;99.90;;;;;;5075542;28;20206;-87
2023/02/14 04:01:48;;;;;;;26.00;11.27;;;0.00;99.90;;;;;;5072609;28;20222;-87
2023/02/14 04:04:19;;;;;;;20.33;9.13;;;0.00;99.90;;;;;;5067184;28;20379;-87
2023/02/14 04:06:46;;;;;;;35.50;9.47;;;-0.10;99.90;;;;;;5069491;28;20210;-87
2023/02/14 04:09:13;;;;;;;34.20;11.70;;;-0.10;99.90;;;;;;5072430;28;20220;-85
2023/02/14 04:11:41;;;;;;;33.63;10.50;;;-0.10;99.90;;;;;;5072355;28;20204;-87
2023/02/14 04:14:08;;;;;;;58.23;10.10;;;-0.10;99.90;;;;;;5072280;28;20201;-87
2023/02/14 04:19:21;;;;;;;31.53;9.43;;;-0.20;99.90;;;;;;5072981;28;20215;-86
2023/02/14 04:19:24;;;;;;;53.00;10.73;;;-0.10;99.90;;;;;;5071035;28;20267;-87
2023/02/14 04:21:51;;;;;;;38.17;10.37;;;-0.10;99.90;;;;;;5052053;28;20218;-87
2023/02/14 04:24:19;;;;;;;69.37;12.40;;;-0.20;99.90;;;;;;5051306;28;20217;-86
2023/02/14 04:27:08;;;;;;;59.30;12.03;;;-0.20;99.90;;;;;;5059562;28;20231;-87
2023/02/14 04:29:36;;;;;;;37.67;10.33;;;-0.20;99.90;;;;;;5077498;28;20254;-86
2023/02/14 04:32:03;;;;;;;44.37;12.00;;;-0.10;99.90;;;;;;5090852;28;20209;-87
2023/02/14 04:34:30;;;;;;;38.10;10.30;;;0.00;99.90;;;;;;5089477;28;20209;-87
2023/02/14 04:36:57;;;;;;;35.47;10.40;;;0.00;99.90;;;;;;5071465;28;20710;-87
2023/02/14 04:39:24;;;;;;;23.83;9.23;;;-0.10;99.90;;;;;;5070848;28;20198;-86
2023/02/14 04:41:52;;;;;;;38.87;9.13;;;0.00;99.90;;;;;;5051717;28;20205;-87
2023/02/14 04:44:19;;;;;;;29.80;9.53;;;0.00;99.90;;;;;;5051095;28;20213;-87
2023/02/14 04:46:46;;;;;;;46.90;9.80;;;-0.10;99.90;;;;;;5069977;28;20698;-86
2023/02/14 04:49:12;;;;;;;40.97;10.20;;;-0.30;99.90;;;;;;5069839;28;20210;-87
2023/02/14 04:51:39;;;;;;;50.37;9.33;;;-0.30;99.90;;;;;;5071075;28;20648;-87
2023/02/14 04:54:06;;;;;;;33.53;9.40;;;-0.40;99.90;;;;;;5071565;28;20698;-87
2023/02/14 04:56:33;;;;;;;23.00;9.47;;;-0.50;99.90;;;;;;5071056;28;20729;-87
2023/02/14 04:59:01;;;;;;;20.60;8.93;;;-0.20;99.90;;;;;;5071384;28;20202;-87
2023/02/14 05:01:28;;;;;;;20.90;8.60;;;-0.20;99.90;;;;;;5071152;28;20233;-86
2023/02/14 05:03:55;;;;;;;23.13;7.80;;;-0.30;99.90;;;;;;5070589;28;20670;-87
2023/02/14 05:06:21;;;;;;;23.07;9.83;;;-0.40;99.90;;;;;;5071326;28;20218;-86
2023/02/14 05:08:48;;;;;;;29.73;10.30;;;-0.60;99.90;;;;;;5071082;28;20210;-87
2023/02/14 05:11:15;;;;;;;22.83;9.53;;;-0.60;99.90;;;;;;5070526;28;20226;-87
2023/02/14 05:13:42;;;;;;;22.80;9.93;;;-0.40;99.90;;;;;;5062724;28;20591;-86
2023/02/14 05:16:10;;;;;;;21.30;9.17;;;-0.40;99.90;;;;;;5076585;28;20202;-86
2023/02/14 05:18:36;;;;;;;17.93;8.93;;;-0.30;99.90;;;;;;5082113;28;20224;-87
2023/02/14 05:21:04;;;;;;;20.03;9.87;;;-0.30;99.90;;;;;;5079149;28;20236;-87
2023/02/14 05:23:30;;;;;;;27.87;9.70;;;-0.40;99.90;;;;;;5070354;28;20285;-87
2023/02/14 05:25:57;;;;;;;24.70;9.17;;;-0.50;99.90;;;;;;5029068;28;1238252;-87
2023/02/14 05:28:24;;;;;;;23.70;9.23;;;-0.50;99.90;;;;;;5076678;28;20225;-87
2023/02/14 05:30:51;;;;;;;28.50;9.50;;;-0.50;99.90;;;;;;5076051;28;20695;-86
2023/02/14 05:33:20;;;;;;;22.10;8.50;;;-0.50;99.90;;;;;;5075917;28;20225;-87
2023/02/14 05:35:46;;;;;;;39.30;9.00;;;-0.40;99.90;;;;;;5075971;28;20206;-87
2023/02/14 05:38:13;;;;;;;20.60;8.90;;;-0.20;99.90;;;;;;5075625;28;20236;-87
2023/02/14 05:40:41;;;;;;;24.37;9.07;;;-0.10;99.90;;;;;;5075939;28;20240;-86
2023/02/14 05:43:08;;;;;;;27.03;9.60;;;-0.20;99.90;;;;;;5075820;28;20297;-87
2023/02/14 05:45:35;;;;;;;18.67;7.27;;;-0.20;99.90;;;;;;5075825;28;20202;-87
2023/02/14 05:48:02;;;;;;;23.03;8.47;;;-0.30;99.90;;;;;;5075960;28;20209;-87
2023/02/14 05:50:30;;;;;;;23.93;8.93;;;-0.30;99.90;;;;;;5075593;28;20696;-86
2023/02/14 05:52:57;;;;;;;22.27;7.80;;;-0.30;99.90;;;;;;5075363;28;20708;-87
2023/02/14 05:55:25;;;;;;;28.87;10.63;;;-0.40;99.90;;;;;;5075478;28;20210;-87
2023/02/14 05:57:51;;;;;;;21.27;8.73;;;-0.40;99.90;;;;;;5075469;28;20221;-87
2023/02/14 06:00:20;;;;;;;18.87;7.63;;;-0.40;99.90;;;;;;5075830;28;20237;-87
2023/02/14 06:02:46;;;;;;;23.67;8.30;;;-0.40;99.90;;;;;;5075501;28;20213;-87
2023/02/14 06:05:16;;;;;;;23.90;8.80;;;-0.50;99.90;;;;;;5075467;28;20205;-86
2023/02/14 06:07:49;;;;;;;20.30;8.10;;;-0.50;99.90;;;;;;5075458;28;20206;-87
2023/02/14 06:10:16;;;;;;;15.33;7.33;;;-0.60;99.90;;;;;;5075141;28;20276;-87
2023/02/14 06:12:43;;;;;;;16.07;8.27;;;-0.70;99.90;;;;;;5074926;28;20202;-87
2023/02/14 06:15:10;;;;;;;25.43;8.07;;;-0.70;99.90;;;;;;5075312;28;20203;-87
2023/02/14 06:17:36;;;;;;;16.50;7.23;;;-0.70;99.90;;;;;;5075050;28;20222;-86
2023/02/14 06:20:04;;;;;;;13.10;6.97;;;-0.60;99.90;;;;;;5075093;28;20222;-86
2023/02/14 06:22:31;;;;;;;12.37;7.53;;;-0.70;99.90;;;;;;5075055;28;20210;-87
2023/02/14 06:24:59;;;;;;;12.30;6.67;;;-0.60;99.90;;;;;;5074868;28;20220;-87
2023/02/14 06:27:26;;;;;;;13.37;7.93;;;-0.60;99.90;;;;;;5074993;28;20203;-87
2023/02/14 06:29:52;;;;;;;13.37;7.93;;;-0.70;99.90;;;;;;5074773;28;20233;-87
2023/02/14 06:32:19;;;;;;;12.50;7.67;;;-0.60;99.90;;;;;;5074830;28;20206;-87
2023/02/14 06:34:46;;;;;;;13.63;8.03;;;-0.70;99.90;;;;;;5075014;28;20212;-87
2023/02/14 06:37:13;;;;;;;13.20;8.33;;;-0.60;99.90;;;;;;5074311;28;20331;-87
2023/02/14 06:39:39;;;;;;;14.67;8.80;;;-0.60;99.90;;;;;;5074748;28;20226;-87
2023/02/14 06:42:08;;;;;;;16.13;7.30;;;-0.60;99.90;;;;;;5074778;28;20206;-86
2023/02/14 06:44:34;;;;;;;13.40;7.73;;;-0.60;99.90;;;;;;5074749;28;20589;-87
2023/02/14 06:47:01;;;;;;;15.93;8.07;;;-0.70;99.90;;;;;;5074724;28;20221;-87
2023/02/14 06:49:28;;;;;;;14.90;8.37;;;-0.70;99.90;;;;;;5074608;28;20198;-87
2023/02/14 06:51:55;;;;;;;14.97;8.80;;;-0.70;99.90;;;;;;5074359;28;20584;-87
2023/02/14 06:54:22;;;;;;;17.90;9.03;;;-0.70;99.90;;;;;;5074503;28;20599;-86
2023/02/14 06:56:48;;;;;;;15.13;8.83;;;-0.70;99.90;;;;;;5074589;28;20202;-86
2023/02/14 06:59:17;;;;;;;15.13;8.70;;;-0.70;99.90;;;;;;5066148;28;20205;-86
2023/02/14 07:01:43;;;;;;;15.03;8.57;;;-0.50;99.90;;;;;;5067372;28;20212;-86
2023/02/14 07:04:10;;;;;;;17.03;8.50;;;-0.50;99.90;;;;;;5067370;28;20210;-86
2023/02/14 07:06:37;;;;;;;15.10;8.37;;;-0.50;99.90;;;;;;5064529;28;20564;-86
2023/02/14 07:09:04;;;;;;;14.13;7.73;;;-0.60;99.90;;;;;;5065435;28;20209;-86
2023/02/14 07:11:32;;;;;;;17.40;9.00;;;-0.60;99.90;;;;;;5071431;28;20729;-86
2023/02/14 07:13:58;;;;;;;14.93;8.23;;;-0.50;99.90;;;;;;5067093;28;20209;-86
2023/02/14 07:16:26;;;;;;;16.10;9.00;;;-0.50;99.90;;;;;;5082642;28;20201;-85
2023/02/14 07:18:53;;;;;;;15.27;8.60;;;-0.40;99.90;;;;;;5086858;28;20228;-86
2023/02/14 07:21:20;;;;;;;15.10;7.67;;;-0.50;99.90;;;;;;5093350;28;20221;-86
2023/02/14 07:23:48;;;;;;;16.53;9.70;;;-0.50;99.90;;;;;;5053824;28;20223;-86
2023/02/14 07:26:17;;;;;;;16.27;9.43;;;-0.40;99.90;;;;;;5068338;28;20651;-86
2023/02/14 07:28:44;;;;;;;14.40;8.37;;;-0.30;99.90;;;;;;5073587;28;20209;-86
2023/02/14 07:31:11;;;;;;;17.33;9.73;;;-0.20;99.90;;;;;;5073917;28;20230;-86
2023/02/14 07:33:39;;;;;;;14.33;7.43;;;-0.10;99.90;;;;;;5073299;28;20210;-86
2023/02/14 07:36:07;;;;;;;15.57;7.83;;;0.00;99.90;;;;;;5072541;28;20206;-86
2023/02/14 07:38:34;;;;;;;13.80;8.73;;;0.00;99.90;;;;;;5072850;28;20599;-86
2023/02/14 07:41:00;;;;;;;15.37;8.07;;;0.00;99.90;;;;;;5073439;28;20240;-85
2023/02/14 07:43:28;;;;;;;14.70;8.67;;;0.00;99.90;;;;;;5072620;28;20685;-86
2023/02/14 07:45:55;;;;;;;15.83;8.87;;;-0.10;99.90;;;;;;5073729;28;20202;-86
2023/02/14 07:48:22;;;;;;;15.37;7.70;;;0.00;99.90;;;;;;5072606;28;20897;-86
2023/02/14 07:50:50;;;;;;;15.33;7.70;;;0.30;99.90;;;;;;5072572;28;20234;-86
2023/02/14 07:53:17;;;;;;;16.83;8.10;;;0.60;99.90;;;;;;5073354;28;20208;-86
2023/02/14 07:55:48;;;;;;;33.57;8.50;;;1.30;99.90;;;;;;5072859;28;20201;-86
2023/02/14 07:58:14;;;;;;;14.40;7.20;;;1.80;99.90;;;;;;5064582;28;20225;-86
2023/02/14 08:00:41;;;;;;;16.63;8.43;;;3.60;99.90;;;;;;5083838;28;20222;-87
2023/02/14 08:03:08;;;;;;;11.73;6.83;;;4.60;99.90;;;;;;5092561;28;20201;-87
2023/02/14 08:05:35;;;;;;;12.87;7.40;;;5.30;99.90;;;;;;5081984;28;20658;-87
2023/02/14 08:08:04;;;;;;;16.87;7.77;;;5.00;99.90;;;;;;5072171;28;20283;-87
2023/02/14 08:10:30;;;;;;;13.50;6.63;;;4.40;99.90;;;;;;5072397;28;20241;-87
2023/02/14 08:13:00;;;;;;;13.27;7.63;;;5.10;99.90;;;;;;5072866;28;20217;-87
2023/02/14 08:18:13;;;;;;;13.67;6.97;;;6.20;99.90;;;;;;5072753;28;20356;-87
2023/02/14 08:20:40;;;;;;;12.03;7.00;;;5.10;99.90;;;;;;5072665;28;20234;-87
2023/02/14 08:23:08;;;;;;;12.60;7.17;;;4.50;99.90;;;;;;5072685;28;20240;-86
2023/02/14 08:25:35;;;;;;;11.97;7.10;;;4.10;99.90;;;;;;5071958;28;20214;-87
2023/02/14 08:28:02;;;;;;;11.10;7.10;;;3.70;99.90;;;;;;5072612;28;20210;-86
2023/02/14 08:30:29;;;;;;;13.73;7.07;;;3.60;99.90;;;;;;5071738;28;20226;-87
2023/02/14 08:32:56;;;;;;;12.37;7.53;;;3.90;99.90;;;;;;5072410;28;20208;-87
2023/02/14 08:35:23;;;;;;;13.77;7.37;;;3.80;99.90;;;;;;5071164;28;20667;-87
2023/02/14 08:37:50;;;;;;;15.83;7.87;;;5.20;99.90;;;;;;5071461;28;20244;-87
2023/02/14 08:40:19;;;;;;;14.90;7.97;;;5.50;99.90;;;;;;5071562;28;20226;-86
2023/02/14 08:42:46;;;;;;;13.67;7.83;;;5.60;99.90;;;;;;5071967;28;20224;-86
2023/02/14 08:45:13;;;;;;;13.60;7.33;;;5.40;99.90;;;;;;5072461;28;20703;-87
2023/02/14 08:47:40;;;;;;;14.33;7.30;;;5.70;99.90;;;;;;5072324;28;20213;-87
2023/02/14 08:50:09;;;;;;;15.50;8.33;;;5.70;99.90;;;;;;5071474;28;20218;-86
2023/02/14 08:52:35;;;;;;;13.97;7.80;;;6.40;99.90;;;;;;5071947;28;20205;-87
2023/02/14 08:55:03;;;;;;;14.43;8.20;;;6.60;99.90;;;;;;5071446;28;20206;-87
2023/02/14 08:57:32;;;;;;;15.23;8.20;;;6.40;99.90;;;;;;5072182;28;20267;-87
2023/02/14 08:59:59;;;;;;;14.43;8.30;;;6.50;99.90;;;;;;5072215;28;20234;-87
2023/02/14 09:02:25;;;;;;;14.43;8.37;;;6.10;99.90;;;;;;5051149;28;20668;-86
2023/02/14 09:04:52;;;;;;;16.50;8.10;;;6.00;99.90;;;;;;5050958;28;20207;-87
2023/02/14 09:07:19;;;;;;;19.30;9.53;;;6.30;99.90;;;;;;5070396;28;20199;-87
2023/02/14 09:09:46;;;;;;;15.50;8.70;;;6.60;99.90;;;;;;5071840;28;20226;-87
2023/02/14 09:12:13;;;;;;;17.10;9.90;;;6.70;99.90;;;;;;5071901;28;20198;-87
2023/02/14 09:14:43;;;;;;;15.80;8.60;;;6.80;99.90;;;;;;5069269;28;20198;-87
2023/02/14 09:17:10;;;;;;;16.17;9.20;;;7.00;99.90;;;;;;5060227;28;20630;-87
2023/02/14 09:19:38;;;;;;;18.53;9.07;;;6.50;99.90;;;;;;5057092;28;20241;-87
2023/02/14 09:22:07;;;;;;;15.60;9.17;;;6.80;99.90;;;;;;5083176;28;20198;-87
2023/02/14 09:24:35;;;;;;;21.33;10.37;;;6.90;99.90;;;;;;5089312;28;20666;-87
2023/02/14 09:27:02;;;;;;;20.47;10.70;;;6.20;99.90;;;;;;5072488;28;20203;-87
2023/02/14 09:29:29;;;;;;;17.97;9.57;;;6.20;99.90;;;;;;5077405;28;20590;-87
2023/02/14 09:32:00;;;;;;;20.10;10.87;;;6.20;99.90;;;;;;5081139;28;20206;-87
2023/02/14 09:37:13;;;;;;;19.27;10.70;;;6.50;99.90;;;;;;5055545;28;20280;-87
2023/02/14 09:39:40;;;;;;;21.77;10.77;;;6.70;99.90;;;;;;5052277;28;20613;-87
2023/02/14 09:42:21;;;;;;;19.17;10.70;;;6.70;99.90;;;;;;5080099;28;20191;-87
2023/02/14 09:44:53;;;;;;;20.47;10.83;;;6.60;99.90;;;;;;5050689;28;20688;-88
2023/02/14 09:47:30;;;;;;;18.70;10.20;;;6.80;99.90;;;;;;5069205;28;20586;-87
2023/02/14 09:49:59;;;;;;;20.80;10.80;;;7.10;99.90;;;;;;5071823;28;20226;-88
2023/02/14 09:52:29;;;;;;;20.63;10.73;;;7.30;99.90;;;;;;5070802;28;20671;-87
2023/02/14 09:54:59;;;;;;;16.67;9.90;;;7.40;99.90;;;;;;5071420;28;20203;-88
2023/02/14 09:57:37;;;;;;;18.73;10.00;;;7.50;99.90;;;;;;5072028;28;20568;-88
2023/02/14 10:00:16;;;;;;;15.47;9.53;;;7.80;99.90;;;;;;5072559;28;20226;-88
2023/02/14 10:02:56;;;;;;;17.03;9.10;;;8.10;99.90;;;;;;5071030;28;20565;-87
2023/02/14 10:05:26;;;;;;;15.97;8.73;;;8.10;99.90;;;;;;5071544;28;20195;-88
2023/02/14 10:08:00;;;;;;;16.23;8.67;;;8.20;99.90;;;;;;5071916;28;20206;-87
2023/02/14 10:10:31;;;;;;;14.03;8.73;;;8.10;99.90;;;;;;5070788;28;20312;-87
2023/02/14 10:13:05;;;;;;;14.20;8.23;;;8.40;99.90;;;;;;5074355;28;20198;-88
2023/02/14 10:15:36;;;;;;;15.67;8.53;;;8.60;99.90;;;;;;5068913;28;20600;-88
2023/02/14 10:18:11;;;;;;;16.20;9.20;;;8.80;99.90;;;;;;5065661;28;20663;-87
2023/02/14 10:20:41;;;;;;;16.33;9.10;;;8.90;99.90;;;;;;5076793;28;20583;-87
2023/02/14 10:23:24;;;;;;;16.67;10.03;;;9.00;99.90;;;;;;5086450;28;20213;-87
2023/02/14 10:25:56;;;;;;;14.67;8.80;;;9.30;99.90;;;;;;5089342;28;20221;-88
2023/02/14 10:28:31;;;;;;;15.30;9.70;;;9.40;99.90;;;;;;5075042;28;20206;-87
2023/02/14 10:31:10;;;;;;;15.70;9.73;;;9.60;99.90;;;;;;5074681;28;20229;-88
2023/02/14 10:33:41;;;;;;;15.23;9.17;;;9.80;99.90;;;;;;5074328;28;20590;-88
2023/02/14 10:36:16;;;;;;;15.17;9.47;;;10.00;99.90;;;;;;5074132;28;20213;-88
2023/02/14 10:38:54;;;;;;;13.57;8.40;;;10.30;99.90;;;;;;5074824;28;20218;-88
2023/02/14 10:41:30;;;;;;;12.73;7.90;;;10.30;99.90;;;;;;5073870;28;20225;-87
2023/02/14 10:44:12;;;;;;;12.97;7.73;;;10.50;99.90;;;;;;5074436;28;20587;-88
2023/02/14 10:46:44;;;;;;;15.33;8.47;;;10.70;99.90;;;;;;5072366;28;20647;-88
2023/02/14 10:49:28;;;;;;;12.20;7.57;;;11.00;99.90;;;;;;5067769;28;20202;-88
2023/02/14 10:52:01;;;;;;;12.40;7.83;;;11.30;99.90;;;;;;5062530;28;20201;-87
2023/02/14 10:54:37;;;;;;;12.03;6.40;;;11.10;99.90;;;;;;5067275;28;20705;-87
2023/02/14 10:57:11;;;;;;;12.17;7.33;;;11.20;99.90;;;;;;5062341;28;20214;-88
2023/02/14 10:59:47;;;;;;;10.53;6.37;;;11.10;99.90;;;;;;5080784;28;20619;-87
2023/02/14 11:02:16;;;;;;;11.37;6.80;;;11.50;99.90;;;;;;5089429;28;20255;-88
2023/02/14 11:04:46;;;;;;;9.87;6.00;;;11.50;99.90;;;;;;5091134;28;20208;-88
2023/02/14 11:07:13;;;;;;;10.63;6.20;;;11.50;99.90;;;;;;5074270;28;20206;-87
2023/02/14 11:09:40;;;;;;;10.27;6.93;;;11.90;99.90;;;;;;5073486;28;20221;-87
2023/02/14 11:12:08;;;;;;;10.27;7.03;;;11.90;99.90;;;;;;5073923;28;20679;-87
2023/02/14 11:14:36;;;;;;;11.57;6.87;;;11.80;99.90;;;;;;5073813;28;20579;-88
2023/02/14 11:17:30;;;;;;;10.13;6.80;;;12.10;99.90;;;;;;5073021;28;20221;-87
2023/02/14 11:20:01;;;;;;;9.20;6.47;;;12.10;99.90;;;;;;5072444;28;20230;-87
2023/02/14 11:22:32;;;;;;;10.33;7.37;;;12.10;99.90;;;;;;5073600;28;20214;-88
2023/02/14 11:25:05;;;;;;;9.90;7.20;;;12.20;99.90;;;;;;5072627;28;20208;-88
2023/02/14 11:27:32;;;;;;;10.70;7.07;;;12.20;99.90;;;;;;5072734;28;20745;-87
2023/02/14 11:30:01;;;;;;;10.63;6.67;;;12.60;99.90;;;;;;5073675;28;20222;-88
2023/02/14 11:32:29;;;;;;;12.40;7.10;;;12.90;99.90;;;;;;5073382;28;20210;-87
2023/02/14 11:35:01;;;;;;;12.70;8.07;;;13.10;99.90;;;;;;5073870;28;20214;-87
2023/02/14 11:37:30;;;;;;;11.93;7.70;;;13.20;99.90;;;;;;5073740;28;20214;-87
2023/02/14 11:39:59;;;;;;;11.63;7.00;;;13.20;99.90;;;;;;5073295;28;20226;-88
2023/02/14 11:42:36;;;;;;;12.17;7.07;;;13.20;99.90;;;;;;5073319;28;20213;-87
2023/02/14 11:45:05;;;;;;;11.97;6.80;;;13.30;99.90;;;;;;5073739;28;20210;-88
2023/02/14 11:47:36;;;;;;;9.53;7.00;;;13.40;99.90;;;;;;5073343;28;20248;-87
2023/02/14 11:50:11;;;;;;;12.40;7.17;;;13.30;99.90;;;;;;5073172;28;20214;-87
2023/02/14 11:52:48;;;;;;;11.33;6.90;;;13.60;99.90;;;;;;5073273;28;20631;-87
2023/02/14 11:55:27;;;;;;;10.03;7.47;;;14.10;99.90;;;;;;5073462;28;20206;-87
2023/02/14 11:57:54;;;;;;;13.00;7.60;;;14.10;99.90;;;;;;5073338;28;20213;-87
2023/02/14 12:00:25;;;;;;;11.53;7.33;;;14.00;99.90;;;;;;5072844;28;20691;-88
2023/02/14 12:02:53;;;;;;;11.95;7.90;;;14.20;99.90;;;;;;5073026;28;20293;-87
2023/02/14 12:05:26;;;;;;;14.68;9.10;;;14.00;99.90;;;;;;5073581;28;20203;-87
2023/02/14 12:07:55;;;;;;;13.13;9.27;;;12.90;99.90;;;;;;5073240;28;20583;-88
2023/02/14 12:10:28;;;;;;;14.93;9.30;;;12.50;99.90;;;;;;5072911;28;20224;-88
2023/02/14 12:12:59;;;;;;;16.87;9.70;;;12.60;99.90;;;;;;5073136;28;20232;-88
2023/02/14 12:15:39;;;;;;;13.33;8.90;;;12.40;99.90;;;;;;5072860;28;20214;-88
2023/02/14 12:18:39;;;;;;;17.13;10.23;;;12.50;99.90;;;;;;5072729;28;20252;-87
2023/02/14 12:21:22;;;;;;;17.27;10.10;;;12.40;99.90;;;;;;5073256;28;20724;-87
2023/02/14 12:23:59;;;;;;;16.20;10.33;;;12.30;99.90;;;;;;5072756;28;20198;-88
2023/02/14 12:26:31;;;;;;;18.20;10.73;;;12.50;99.90;;;;;;5073149;28;20186;-87
2023/02/14 12:29:04;;;;;;;16.07;10.13;;;12.50;99.90;;;;;;5073608;28;20206;-87
2023/02/14 12:31:31;;;;;;;18.63;10.53;;;12.50;99.90;;;;;;5072964;28;20233;-87
2023/02/14 12:33:58;;;;;;;14.73;9.50;;;12.50;99.90;;;;;;5073064;28;20229;-87
2023/02/14 12:36:40;;;;;;;15.87;10.23;;;12.40;99.90;;;;;;5073456;28;20602;-87
2023/02/14 12:39:15;;;;;;;16.50;10.17;;;13.60;99.90;;;;;;5073411;28;20237;-87
2023/02/14 12:41:49;;;;;;;15.93;10.13;;;14.40;99.90;;;;;;5073369;28;20251;-87
2023/02/14 12:44:23;;;;;;;18.80;10.37;;;15.20;99.90;;;;;;5074098;28;20216;-87
2023/02/14 12:47:07;;;;;;;16.80;9.20;;;15.60;99.90;;;;;;5074457;28;20635;-86
2023/02/14 12:49:59;;;;;;;17.03;9.63;;;15.70;99.90;;;;;;5073854;28;20206;-87
2023/02/14 12:52:49;;;;;;;16.00;10.43;;;16.70;99.90;;;;;;5073388;28;20194;-87
2023/02/14 12:55:37;;;;;;;16.00;9.33;;;16.50;99.90;;;;;;5074111;28;20205;-87
2023/02/14 12:58:15;;;;;;;15.75;10.07;;;16.00;99.90;;;;;;5072023;28;20206;-87
2023/02/14 13:00:52;;;;;;;18.48;8.50;;;15.60;99.90;;;;;;5069135;28;20320;-87
2023/02/14 13:03:41;;;;;;;16.70;8.95;;;15.70;99.90;;;;;;5072319;28;20566;-87
2023/02/14 13:06:16;;;;;;;15.77;8.88;;;16.40;99.90;;;;;;5071457;28;20198;-87
2023/02/14 13:09:00;;;;;;;14.60;8.95;;;16.90;99.90;;;;;;5061006;28;20210;-87
2023/02/14 13:11:36;;;;;;;14.57;8.05;;;17.30;99.90;;;;;;5062745;28;20226;-87